Detall de PIREP

Printer-friendly versionPDF version

[2014/02/01 19:52:00]
Flight IATA:CT3233
Pilot Number:042
Company ICAO:CAT
Aircraft Type:B738/F
PAX:98
Departing Airport: LEMD
Destination Airport: LEPA
Alternate Airport:LEBL
Online: VATSIM
Route:NANDO UM871 GODOX
Flight Level:F300
No Slew and time accel
No pause
Crash detect
Detect pilot in Cockpit between each 30 and 45 minutes
19:52 Zero fuel Weight: 121806 Lbs, Fuel Weight: 45491 Lbs
19:52 VATSIM:LEMD 011930Z 29011KT 260V330 9999 FEW060 06/M03 Q1015 NOSIG
19:52 VATSIM:LEPA 011930Z 28006KT 250V330 9999 FEW017 SCT068 13/11 Q1008 NOSIG
19:53 VOICE CATALONIAN/IATA ROUTE CT3233
20:01 Parking Brakes off
20:17 Take-off
20:17 Take off Weight: 165996 Lbs
20:17 Wind: 299º @ 010 Knots Heading: 358º
20:17 POS N40º 30´ 48´´ W003º 34´ 29´´
20:17 Flaps:3 at 168 Knots
20:17 Gear Up: 166 Knots
20:18 Flaps:2 at 175 Knots
20:21 Flaps:1 at 232 Knots
20:21 Flaps:0 at 233 Knots
20:32 Wind:298º@012 Knots Heading: 106º Ground Speed: 464 Knots Altitude 22306 ft
20:47 Wind:328º@013 Knots Heading: 084º Ground Speed: 481 Knots Altitude 25656 ft
21:02 Wind:340º@007 Knots Heading: 070º Ground Speed: 359 Knots Altitude 18950 ft
21:11 Flaps:1 at 248 Knots
21:12 Flaps:2 at 199 Knots
21:13 Flaps:3 at 197 Knots
21:16 Gear Down: 185 Knots
21:16 Flaps:4 at 184 Knots
21:16 Gear Up: 183 Knots
21:17 Wind:329º@007 Knots Heading: 241º Ground Speed: 190 Knots Altitude 3562 ft
21:18 Flaps:5 at 178 Knots
21:18 Gear Down: 181 Knots
21:18 Gear Up: 178 Knots
21:18 Gear Down: 180 Knots
21:18 Gear Up: 180 Knots
21:18 Gear Down: 180 Knots
21:18 Flaps:6 at 180 Knots
21:19 Flaps:7 at 170 Knots
21:19 Flaps:8 at 157 Knots
21:21 TouchDown:Rate -169 ft/min Speed: 144 Knots
21:21 VATSIM:LEPA 012100Z 33008KT 290V010 9999 FEW017 SCT068 14/06 Q1008 NOSIG
21:22 Land
21:22 Wind:329º@007 Knots
21:22 Heading: 238º
21:22 Flight Duration: 01:05
21:22 Landing Weight: 158759 Lbs
21:22 POS N39º 32´ 55´´ E002º 44´ 52´´
21:33 Parking brakes on
21:33 Block to Block Duration: 01:32
21:33 Final Fuel: 35833 Lbls
21:33 Spent Fuel: 9658 Lbls
21:33 Flight Length: 402 NM
21:33 TOD Land Length: 402 NM

Exportar CSV

Powered by Drupal - Modified by Danger4k